createdAt,value
2023-03-06T00:00:22.160Z,5.03
2023-03-06T00:02:52.275Z,5.30
2023-03-06T00:05:22.074Z,5.00
2023-03-06T00:07:51.928Z,5.70
2023-03-06T00:10:22.608Z,5.13
2023-03-06T00:12:57.153Z,4.60
2023-03-06T00:15:27.385Z,4.47
2023-03-06T00:17:57.755Z,5.33
2023-03-06T00:20:27.764Z,4.53
2023-03-06T00:22:58.456Z,5.23
2023-03-06T00:25:28.328Z,5.23
2023-03-06T00:28:00.753Z,4.53
2023-03-06T00:30:33.628Z,5.20
2023-03-06T00:33:03.213Z,5.03
2023-03-06T00:35:33.383Z,4.70
2023-03-06T00:38:02.949Z,4.60
2023-03-06T00:40:32.443Z,4.97
2023-03-06T00:43:05.398Z,4.97
2023-03-06T00:45:34.931Z,5.33
2023-03-06T00:48:04.404Z,4.10
2023-03-06T00:50:35.304Z,4.87
2023-03-06T00:53:04.895Z,4.90
2023-03-06T00:55:34.412Z,5.07
2023-03-06T00:58:06.820Z,4.77
2023-03-06T01:00:36.455Z,4.80
2023-03-06T01:03:05.924Z,5.00
2023-03-06T01:05:37.130Z,4.57
2023-03-06T01:08:06.659Z,4.83
2023-03-06T01:10:36.078Z,5.33
2023-03-06T01:13:08.245Z,5.47
2023-03-06T01:15:37.780Z,4.73
2023-03-06T01:18:07.448Z,5.13
2023-03-06T01:20:39.382Z,4.97
2023-03-06T01:23:08.921Z,5.73
2023-03-06T01:25:38.492Z,4.90
2023-03-06T01:28:10.985Z,4.93
2023-03-06T01:30:40.542Z,4.70
2023-03-06T01:33:10.025Z,4.80
2023-03-06T01:35:40.723Z,4.70
2023-03-06T01:38:10.188Z,5.07
2023-03-06T01:40:40.833Z,5.13
2023-03-06T01:43:27.767Z,4.83
2023-03-06T01:46:21.267Z,5.30
2023-03-06T01:48:51.319Z,5.13
2023-03-06T01:51:20.852Z,5.07
2023-03-06T01:53:51.608Z,4.87
2023-03-06T01:56:21.339Z,5.07
2023-03-06T01:58:53.683Z,4.70
2023-03-06T02:01:23.314Z,5.50
2023-03-06T02:03:53.087Z,4.67
2023-03-06T02:06:22.687Z,5.33
2023-03-06T02:08:54.784Z,5.03
2023-03-06T02:11:25.674Z,5.00
2023-03-06T02:13:57.941Z,4.77
2023-03-06T02:16:29.707Z,4.43
2023-03-06T02:19:01.133Z,6.07
2023-03-06T02:21:33.291Z,5.27
2023-03-06T02:24:07.724Z,6.33
2023-03-06T02:26:40.506Z,4.63
2023-03-06T02:29:10.652Z,5.60
2023-03-06T02:31:40.258Z,5.47
2023-03-06T02:34:11.486Z,4.83
2023-03-06T02:36:43.649Z,5.20
2023-03-06T02:39:13.787Z,5.10
2023-03-06T02:41:45.898Z,5.30
2023-03-06T02:44:17.277Z,5.17
2023-03-06T02:46:46.872Z,5.07
2023-03-06T02:49:16.322Z,6.27
2023-03-06T02:51:45.896Z,5.57
2023-03-06T02:54:18.384Z,5.87
2023-03-06T02:56:51.093Z,5.50
2023-03-06T02:59:20.625Z,5.47
2023-03-06T03:01:50.477Z,5.43
2023-03-06T03:04:20.038Z,5.97
2023-03-06T03:06:49.511Z,5.23
2023-03-06T03:09:19.161Z,5.17
2023-03-06T03:11:51.307Z,5.40
2023-03-06T03:14:20.849Z,6.03
2023-03-06T03:16:50.859Z,5.40
2023-03-06T03:19:20.397Z,4.77
2023-03-06T03:21:49.943Z,5.97
2023-03-06T03:24:19.459Z,5.97
2023-03-06T03:26:52.024Z,5.23
2023-03-06T03:29:23.333Z,5.20
2023-03-06T03:31:52.978Z,5.83
2023-03-06T03:34:22.793Z,5.50
2023-03-06T03:36:52.294Z,5.43
2023-03-06T03:39:21.865Z,5.10
2023-03-06T03:41:53.937Z,5.23
2023-03-06T03:44:23.754Z,6.00
2023-03-06T03:46:53.453Z,5.27
2023-03-06T03:49:25.352Z,5.60
2023-03-06T03:51:55.845Z,5.83
2023-03-06T03:54:27.741Z,5.83
2023-03-06T03:57:00.472Z,5.70
2023-03-06T03:59:34.892Z,6.30
2023-03-06T04:02:14.902Z,5.37
2023-03-06T04:04:53.082Z,5.17
2023-03-06T04:07:22.615Z,6.70
2023-03-06T04:09:52.643Z,6.00
2023-03-06T04:12:25.001Z,5.73
2023-03-06T04:14:54.699Z,5.80
2023-03-06T04:17:25.781Z,5.83
2023-03-06T04:19:57.105Z,5.70
2023-03-06T04:22:26.741Z,6.17
2023-03-06T04:24:56.599Z,5.67
2023-03-06T04:27:28.912Z,7.07
2023-03-06T04:29:58.606Z,6.10
2023-03-06T04:32:28.171Z,6.17
2023-03-06T04:34:58.070Z,5.60
2023-03-06T04:37:28.902Z,6.00
2023-03-06T04:39:59.980Z,5.37
2023-03-06T04:42:32.631Z,6.60
2023-03-06T04:45:02.140Z,6.77
2023-03-06T04:47:31.603Z,7.10
2023-03-06T04:50:01.159Z,6.03
2023-03-06T04:52:30.596Z,6.83
2023-03-06T04:55:00.389Z,5.60
2023-03-06T04:57:32.533Z,6.10
2023-03-06T05:00:02.104Z,5.77
2023-03-06T05:02:31.604Z,6.20
2023-03-06T05:05:01.151Z,6.50
2023-03-06T05:07:30.749Z,5.70
2023-03-06T05:10:00.611Z,6.97
2023-03-06T05:12:32.721Z,7.37
2023-03-06T05:15:02.219Z,7.17
2023-03-06T05:17:31.870Z,7.70
2023-03-06T05:20:01.423Z,6.13
2023-03-06T05:22:30.966Z,7.03
2023-03-06T05:25:00.506Z,6.53
2023-03-06T05:27:32.658Z,6.53
2023-03-06T05:30:02.324Z,6.30
2023-03-06T05:32:34.430Z,7.87
2023-03-06T05:35:04.986Z,7.03
2023-03-06T05:37:34.636Z,6.73
2023-03-06T05:40:09.669Z,6.83
2023-03-06T05:42:41.834Z,7.10
2023-03-06T05:45:12.477Z,7.00
2023-03-06T05:47:42.139Z,6.93
2023-03-06T05:50:14.020Z,7.03
2023-03-06T05:52:43.529Z,7.27
2023-03-06T05:55:15.618Z,6.23
2023-03-06T05:57:48.144Z,7.20
2023-03-06T06:00:18.199Z,6.27
2023-03-06T06:02:48.061Z,7.07
2023-03-06T06:05:17.561Z,7.23
2023-03-06T06:07:47.154Z,7.63
2023-03-06T06:10:17.778Z,7.30
2023-03-06T06:12:49.830Z,7.37
2023-03-06T06:15:19.398Z,7.43
2023-03-06T06:17:48.833Z,7.77
2023-03-06T06:20:18.782Z,6.70
2023-03-06T06:22:48.288Z,7.77
2023-03-06T06:25:18.146Z,7.97
2023-03-06T06:27:50.276Z,8.20
2023-03-06T06:30:20.270Z,7.40
2023-03-06T06:32:49.779Z,7.27
2023-03-06T06:35:19.536Z,7.70
2023-03-06T06:37:49.089Z,8.27
2023-03-06T06:40:18.829Z,8.03
2023-03-06T06:42:51.080Z,7.63
2023-03-06T06:45:20.723Z,7.40
2023-03-06T06:47:52.662Z,8.60
2023-03-06T06:50:22.339Z,8.30
2023-03-06T06:52:51.858Z,8.40
2023-03-06T06:55:21.466Z,7.60
2023-03-06T06:57:53.563Z,7.90
2023-03-06T07:00:23.688Z,7.67
2023-03-06T07:02:53.216Z,8.03
2023-03-06T07:05:22.686Z,6.73
2023-03-06T07:07:52.223Z,8.57
2023-03-06T07:10:21.910Z,7.53
2023-03-06T07:12:54.572Z,7.43
2023-03-06T07:15:26.921Z,7.80
2023-03-06T07:17:56.486Z,7.50
2023-03-06T07:20:26.124Z,8.47
2023-03-06T07:22:55.734Z,7.90
2023-03-06T07:25:25.240Z,8.40
2023-03-06T07:27:57.833Z,9.20
2023-03-06T07:30:27.719Z,8.43
2023-03-06T07:32:57.416Z,8.40
2023-03-06T07:35:27.384Z,7.67
2023-03-06T07:37:56.925Z,8.13
2023-03-06T07:40:26.880Z,8.60
2023-03-06T07:43:16.781Z,7.03
2023-03-06T07:45:58.290Z,8.43
2023-03-06T07:48:27.872Z,8.70
2023-03-06T07:51:01.715Z,9.13
2023-03-06T07:53:31.356Z,7.93
2023-03-06T07:56:00.903Z,8.37
2023-03-06T07:58:33.079Z,7.80
2023-03-06T08:01:05.815Z,8.60
2023-03-06T08:03:35.636Z,8.97
2023-03-06T08:06:09.179Z,7.80
2023-03-06T08:08:39.442Z,8.30
2023-03-06T08:11:08.998Z,8.97
2023-03-06T08:13:41.564Z,9.63
2023-03-06T08:16:11.688Z,8.93
2023-03-06T08:18:41.441Z,9.33
2023-03-06T08:21:11.922Z,9.77
2023-03-06T08:23:41.626Z,8.87
2023-03-06T08:26:13.404Z,8.87
2023-03-06T08:28:45.853Z,8.83
2023-03-06T08:31:17.342Z,8.97
2023-03-06T08:33:46.837Z,8.33
2023-03-06T08:36:16.294Z,8.80
2023-03-06T08:38:45.927Z,8.37
2023-03-06T08:41:15.761Z,8.67
2023-03-06T08:43:48.145Z,8.17
2023-03-06T08:46:18.869Z,7.63
2023-03-06T08:48:49.416Z,9.53
2023-03-06T08:51:19.509Z,8.90
2023-03-06T08:53:49.476Z,7.77
2023-03-06T08:56:19.639Z,7.63
2023-03-06T08:58:52.237Z,7.87
2023-03-06T09:01:23.084Z,8.43
2023-03-06T09:03:52.968Z,7.60
2023-03-06T09:06:22.468Z,7.30
2023-03-06T09:08:53.457Z,7.70
2023-03-06T09:11:23.907Z,7.17
2023-03-06T09:13:56.432Z,7.28
2023-03-06T09:16:26.258Z,8.20
2023-03-06T09:18:57.480Z,7.40
2023-03-06T09:21:28.727Z,7.63
2023-03-06T09:23:58.431Z,7.53
2023-03-06T09:26:43.411Z,8.97
2023-03-06T09:29:17.720Z,8.37
2023-03-06T09:31:47.343Z,8.53
2023-03-06T09:34:16.848Z,7.83
2023-03-06T09:36:56.719Z,7.70
2023-03-06T09:39:27.620Z,7.17
2023-03-06T09:41:58.453Z,7.27
2023-03-06T09:44:31.993Z,8.00
2023-03-06T09:47:13.658Z,8.00
2023-03-06T09:49:48.961Z,9.37
2023-03-06T09:52:25.771Z,7.80
2023-03-06T09:54:56.593Z,7.70
2023-03-06T09:57:28.502Z,8.27
2023-03-06T10:00:04.701Z,9.43
2023-03-06T10:02:38.725Z,8.07
2023-03-06T10:05:10.715Z,9.13
2023-03-06T10:07:45.456Z,9.53
2023-03-06T10:10:20.127Z,9.90
2023-03-06T10:12:52.045Z,9.17
2023-03-06T10:15:26.418Z,8.77
2023-03-06T10:17:56.166Z,8.63
2023-03-06T10:20:26.537Z,8.53
2023-03-06T10:23:07.705Z,7.43
2023-03-06T10:25:41.265Z,8.97
2023-03-06T10:28:16.800Z,9.07
2023-03-06T10:30:53.886Z,8.57
2023-03-06T10:33:33.195Z,8.50
2023-03-06T10:36:03.103Z,9.03
2023-03-06T10:38:38.411Z,7.53
2023-03-06T10:41:09.894Z,8.90
2023-03-06T10:43:40.619Z,9.07
2023-03-06T10:46:14.674Z,7.50
2023-03-06T10:48:44.763Z,8.03
2023-03-06T10:51:19.607Z,7.73
2023-03-06T10:53:53.921Z,7.67
2023-03-06T10:56:29.079Z,7.23
2023-03-06T10:59:09.240Z,7.77
2023-03-06T11:01:41.752Z,6.75
2023-03-06T11:04:18.787Z,7.00
2023-03-06T11:06:48.354Z,7.67
2023-03-06T11:09:19.086Z,6.53
2023-03-06T11:11:48.582Z,7.37
2023-03-06T11:14:19.310Z,6.43
2023-03-06T11:16:53.326Z,7.17
2023-03-06T11:19:25.783Z,6.57
2023-03-06T11:22:03.104Z,7.07
2023-03-06T11:24:37.545Z,6.10
2023-03-06T11:27:11.875Z,5.97
2023-03-06T11:29:43.607Z,6.47
2023-03-06T11:32:19.059Z,7.10
2023-03-06T11:34:50.972Z,7.10
2023-03-06T11:37:26.490Z,6.32
2023-03-06T11:39:59.649Z,5.45
2023-03-06T11:42:30.009Z,5.75
2023-03-06T11:45:06.695Z,5.80
2023-03-06T11:47:40.217Z,6.78
2023-03-06T11:50:16.988Z,6.47
2023-03-06T11:52:48.909Z,5.40
2023-03-06T11:55:20.389Z,5.60
2023-03-06T11:57:54.201Z,6.40
2023-03-06T12:00:31.091Z,5.72
2023-03-06T12:03:21.776Z,5.97
2023-03-06T12:05:56.619Z,5.60
2023-03-06T12:08:31.507Z,5.37
2023-03-06T12:11:03.816Z,6.00
2023-03-06T12:13:41.653Z,5.50
2023-03-06T12:16:19.540Z,5.77
2023-03-06T12:18:55.280Z,5.87
2023-03-06T12:21:31.105Z,5.13
2023-03-06T12:24:06.157Z,5.80
2023-03-06T12:26:42.228Z,6.30
2023-03-06T12:29:21.370Z,5.50
2023-03-06T12:31:58.150Z,6.13
2023-03-06T12:34:32.572Z,6.50
2023-03-06T12:37:12.217Z,6.10
2023-03-06T12:39:49.937Z,5.50
2023-03-06T12:42:30.371Z,6.50
2023-03-06T12:45:04.096Z,5.40
2023-03-06T12:47:34.375Z,6.57
2023-03-06T12:50:05.628Z,6.13
2023-03-06T12:52:38.388Z,6.17
2023-03-06T12:55:09.389Z,6.10
2023-03-06T12:57:38.942Z,5.00
2023-03-06T13:00:09.162Z,5.60
2023-03-06T13:02:49.089Z,5.97
2023-03-06T13:05:33.322Z,5.43
2023-03-06T13:08:20.769Z,6.32
2023-03-06T13:11:08.210Z,5.57
2023-03-06T13:13:44.400Z,6.03
2023-03-06T13:16:16.027Z,5.57
2023-03-06T13:18:54.635Z,6.83
2023-03-06T13:21:39.219Z,6.60
2023-03-06T13:24:16.617Z,7.90
2023-03-06T13:27:07.077Z,5.83
2023-03-06T13:29:54.453Z,5.30
2023-03-06T13:32:31.389Z,5.83
2023-03-06T13:35:01.018Z,6.60
2023-03-06T13:37:48.086Z,7.27
2023-03-06T13:40:27.945Z,6.70
2023-03-06T13:43:05.463Z,6.30
2023-03-06T13:45:42.040Z,5.93
2023-03-06T13:48:43.239Z,6.97
2023-03-06T13:51:18.114Z,6.17
2023-03-06T13:54:02.746Z,6.70
2023-03-06T13:56:49.965Z,7.18
2023-03-06T13:59:31.304Z,11.52
2023-03-06T14:02:10.703Z,6.78
2023-03-06T14:04:41.257Z,6.63
2023-03-06T14:07:32.290Z,6.53
2023-03-06T14:10:12.484Z,6.32
2023-03-06T14:12:44.393Z,6.13
2023-03-06T14:15:20.165Z,4.47
2023-03-06T14:17:56.113Z,5.23
2023-03-06T14:20:29.038Z,5.43
2023-03-06T14:23:16.549Z,6.17
2023-03-06T14:25:47.855Z,5.53
2023-03-06T14:28:27.404Z,5.90
2023-03-06T14:30:57.615Z,6.57
2023-03-06T14:33:33.595Z,5.87
2023-03-06T14:36:04.525Z,5.97
2023-03-06T14:38:36.187Z,6.80
2023-03-06T14:41:06.663Z,7.37
2023-03-06T14:43:36.228Z,6.80
2023-03-06T14:46:06.520Z,6.90
2023-03-06T14:48:46.940Z,6.87
2023-03-06T14:51:18.595Z,5.37
2023-03-06T14:53:49.084Z,6.03
2023-03-06T14:56:20.345Z,5.07
2023-03-06T14:58:55.319Z,4.80
2023-03-06T15:01:28.689Z,5.07
2023-03-06T15:04:01.813Z,5.20
2023-03-06T15:06:34.103Z,5.63
2023-03-06T15:09:07.596Z,5.00
2023-03-06T15:11:58.107Z,5.63
2023-03-06T15:14:35.737Z,5.97
2023-03-06T15:17:32.084Z,6.20
2023-03-06T15:20:06.651Z,5.50
2023-03-06T15:22:38.130Z,6.43
2023-03-06T15:25:26.879Z,6.53
2023-03-06T15:27:57.245Z,7.13
2023-03-06T15:30:28.398Z,6.70
2023-03-06T15:33:15.579Z,7.63
2023-03-06T15:35:55.122Z,8.30
2023-03-06T15:38:26.550Z,8.20
2023-03-06T15:40:59.670Z,7.53
2023-03-06T15:43:30.323Z,7.17
2023-03-06T15:46:01.656Z,7.57
2023-03-06T15:48:31.477Z,8.07
2023-03-06T15:51:04.943Z,7.93
2023-03-06T15:53:34.606Z,7.80
2023-03-06T15:56:04.352Z,9.53
2023-03-06T15:58:36.436Z,7.47
2023-03-06T16:01:06.465Z,8.30
2023-03-06T16:03:35.967Z,7.37
2023-03-06T16:06:08.621Z,7.60
2023-03-06T16:08:38.118Z,8.43
2023-03-06T16:11:07.831Z,7.87
2023-03-06T16:13:37.414Z,7.07
2023-03-06T16:16:07.149Z,8.53
2023-03-06T16:18:36.600Z,8.97
2023-03-06T16:21:09.443Z,7.13
2023-03-06T16:23:39.224Z,7.57
2023-03-06T16:26:09.596Z,7.60
2023-03-06T16:28:41.398Z,8.97
2023-03-06T16:31:11.883Z,7.93
2023-03-06T16:33:41.385Z,8.37
2023-03-06T16:36:19.062Z,9.63
2023-03-06T16:38:48.629Z,8.63
2023-03-06T16:41:18.674Z,8.20
2023-03-06T16:43:49.274Z,7.60
2023-03-06T16:46:19.964Z,8.87
2023-03-06T16:48:49.708Z,9.97
2023-03-06T16:51:22.840Z,8.70
2023-03-06T16:53:52.948Z,8.40
2023-03-06T16:56:23.180Z,9.33
2023-03-06T16:58:52.656Z,8.30
2023-03-06T17:01:22.446Z,9.57
2023-03-06T17:03:52.075Z,9.03
2023-03-06T17:06:24.856Z,10.00
2023-03-06T17:08:54.750Z,11.27
2023-03-06T17:11:24.769Z,9.70
2023-03-06T17:13:55.301Z,8.87
2023-03-06T17:16:25.078Z,9.13
2023-03-06T17:18:54.568Z,9.70
2023-03-06T17:21:27.362Z,9.23
2023-03-06T17:23:57.322Z,9.57
2023-03-06T17:26:27.157Z,9.90
2023-03-06T17:28:57.119Z,11.43
2023-03-06T17:31:27.691Z,11.80
2023-03-06T17:34:00.741Z,9.90
2023-03-06T17:36:34.191Z,9.43
2023-03-06T17:39:04.741Z,9.97
2023-03-06T17:41:34.350Z,8.93
2023-03-06T17:44:04.051Z,9.53
2023-03-06T17:46:34.849Z,10.00
2023-03-06T17:49:04.451Z,9.10
2023-03-06T17:51:36.775Z,9.17
2023-03-06T17:54:06.501Z,9.63
2023-03-06T17:56:36.107Z,9.60
2023-03-06T17:59:05.725Z,10.27
2023-03-06T18:01:35.282Z,10.27
2023-03-06T18:04:05.051Z,10.50
2023-03-06T18:06:37.284Z,11.00
2023-03-06T18:09:10.140Z,9.97
2023-03-06T18:11:39.970Z,9.50
2023-03-06T18:14:09.692Z,10.57
2023-03-06T18:16:39.222Z,10.03
2023-03-06T18:19:08.782Z,9.03
2023-03-06T18:21:40.967Z,9.63
2023-03-06T18:24:12.463Z,9.73
2023-03-06T18:26:44.395Z,10.93
2023-03-06T18:29:14.129Z,10.93
2023-03-06T18:31:44.888Z,10.57
2023-03-06T18:34:15.176Z,11.70
2023-03-06T18:36:48.386Z,9.73
2023-03-06T18:39:18.168Z,9.77
2023-03-06T18:41:47.660Z,10.57
2023-03-06T18:44:17.708Z,10.83
2023-03-06T18:46:47.546Z,12.27
2023-03-06T18:49:17.194Z,13.10
2023-03-06T18:51:49.628Z,13.03
2023-03-06T18:54:19.261Z,13.13
2023-03-06T18:56:48.818Z,12.57
2023-03-06T18:59:19.106Z,12.80
2023-03-06T19:01:49.241Z,12.50
2023-03-06T19:04:18.912Z,13.60
2023-03-06T19:06:51.519Z,14.07
2023-03-06T19:09:21.426Z,11.63
2023-03-06T19:11:52.546Z,13.13
2023-03-06T19:14:24.005Z,10.77
2023-03-06T19:16:53.621Z,12.33
2023-03-06T19:19:26.334Z,11.37
2023-03-06T19:21:59.905Z,12.23
2023-03-06T19:24:29.790Z,11.67
2023-03-06T19:26:59.341Z,10.83
2023-03-06T19:29:28.932Z,11.13
2023-03-06T19:31:59.368Z,10.97
2023-03-06T19:34:29.037Z,11.50
2023-03-06T19:37:01.246Z,9.97
2023-03-06T19:39:30.938Z,10.73
2023-03-06T19:42:00.471Z,10.30
2023-03-06T19:44:30.087Z,9.90
2023-03-06T19:46:59.590Z,10.80
2023-03-06T19:49:29.177Z,10.87
2023-03-06T19:52:01.318Z,10.10
2023-03-06T19:54:32.640Z,10.37
2023-03-06T19:57:02.510Z,9.80
2023-03-06T19:59:32.321Z,9.63
2023-03-06T20:02:01.850Z,9.77
2023-03-06T20:04:33.809Z,11.40
2023-03-06T20:07:06.837Z,10.30
2023-03-06T20:09:37.025Z,10.53
2023-03-06T20:12:08.271Z,9.57
2023-03-06T20:14:38.101Z,9.83
2023-03-06T20:17:07.857Z,10.17
2023-03-06T20:19:37.597Z,9.23
2023-03-06T20:22:09.848Z,9.73
2023-03-06T20:24:39.402Z,10.70
2023-03-06T20:27:08.947Z,9.50
2023-03-06T20:29:38.514Z,9.70
2023-03-06T20:32:08.230Z,10.13
2023-03-06T20:34:39.124Z,9.13
2023-03-06T20:37:12.278Z,9.20
2023-03-06T20:39:41.902Z,9.33
2023-03-06T20:42:11.625Z,8.77
2023-03-06T20:44:41.337Z,9.43
2023-03-06T20:47:10.902Z,8.77
2023-03-06T20:49:41.064Z,8.77
2023-03-06T20:52:13.349Z,9.03
2023-03-06T20:54:42.986Z,8.80
2023-03-06T20:57:12.545Z,8.63
2023-03-06T20:59:42.402Z,9.37
2023-03-06T21:02:14.986Z,8.93
2023-03-06T21:04:44.625Z,9.37
2023-03-06T21:07:17.076Z,9.23
2023-03-06T21:09:47.808Z,8.43
2023-03-06T21:12:17.347Z,9.77
2023-03-06T21:14:46.879Z,9.33
2023-03-06T21:17:16.562Z,9.57
2023-03-06T21:19:46.484Z,8.13
2023-03-06T21:22:18.668Z,9.53
2023-03-06T21:24:48.264Z,9.80
2023-03-06T21:27:18.032Z,8.93
2023-03-06T21:29:47.780Z,8.40
2023-03-06T21:32:17.402Z,9.63
2023-03-06T21:34:47.050Z,9.80
2023-03-06T21:37:19.289Z,9.07
2023-03-06T21:39:48.858Z,8.43
2023-03-06T21:42:18.459Z,9.83
2023-03-06T21:44:48.068Z,9.60
2023-03-06T21:47:17.654Z,10.60
2023-03-06T21:49:47.195Z,9.67
2023-03-06T21:52:19.409Z,8.10
2023-03-06T21:54:51.327Z,8.97
2023-03-06T21:57:20.954Z,9.43
2023-03-06T21:59:50.499Z,8.00
2023-03-06T22:02:20.103Z,9.53
2023-03-06T22:04:52.642Z,9.30
2023-03-06T22:07:25.160Z,8.57
2023-03-06T22:09:55.557Z,9.87
2023-03-06T22:12:25.099Z,8.63
2023-03-06T22:14:54.757Z,8.97
2023-03-06T22:17:24.347Z,8.10
2023-03-06T22:19:53.986Z,9.13
2023-03-06T22:22:26.228Z,8.07
2023-03-06T22:24:55.950Z,8.67
2023-03-06T22:27:25.502Z,8.50
2023-03-06T22:29:55.589Z,7.97
2023-03-06T22:32:25.269Z,8.97
2023-03-06T22:34:54.919Z,7.70
2023-03-06T22:37:27.213Z,8.10
2023-03-06T22:39:56.760Z,8.07
2023-03-06T22:42:26.402Z,8.13
2023-03-06T22:44:56.040Z,8.10
2023-03-06T22:47:25.511Z,8.33
2023-03-06T22:49:55.035Z,7.13
2023-03-06T22:52:27.279Z,7.97
2023-03-06T22:54:56.916Z,7.30
2023-03-06T22:57:26.447Z,8.23
2023-03-06T22:59:56.010Z,7.03
2023-03-06T23:02:25.692Z,7.03
2023-03-06T23:04:55.190Z,7.07
2023-03-06T23:07:27.434Z,7.90
2023-03-06T23:10:03.290Z,7.03
2023-03-06T23:12:51.145Z,7.27
2023-03-06T23:15:39.376Z,7.13
2023-03-06T23:18:30.475Z,6.27
2023-03-06T23:21:19.302Z,6.70
2023-03-06T23:24:10.520Z,6.50
2023-03-06T23:26:40.830Z,6.73
2023-03-06T23:29:10.431Z,6.63
2023-03-06T23:31:39.971Z,6.03
2023-03-06T23:34:10.975Z,6.73
2023-03-06T23:36:40.567Z,7.50
2023-03-06T23:39:14.352Z,6.87
2023-03-06T23:41:44.107Z,6.87
2023-03-06T23:44:13.675Z,7.57
2023-03-06T23:46:43.325Z,7.13
2023-03-06T23:49:12.907Z,6.63
2023-03-06T23:51:42.567Z,7.57
2023-03-06T23:54:14.809Z,6.27
2023-03-06T23:56:44.386Z,6.50
2023-03-06T23:59:14.195Z,7.73
